• Join FlightAware (Why Join?)
  • Login
  • US Flag 
12:58AM EST


 

Airport Tracker/Info


-or-


 

Live Flight TrackerFlight Track Log ✈ THY780 ✈ 30-Apr-2013 ✈ LTBA / IST - OTBD

Flight Track Log - Related Links

Times and Time Zones

All times are in EDT time to prevent confusion due to time zone crossing. See the THY780 flight status page for this flight to view local times or setup timezone preferences in your user account.

Time Position Orientation Groundspeed Altitude Reporting Facility
EDT Latitude Longitude Course Direction KTS MPH feet Rate Location/Type
02:29PM 40.9980 28.8060 348° North 163 188 600  Level FlightAware
02:30PM 41.0250 28.8050 358° North 179 206 1,800 1,620 Climbing FlightAware
02:30PM 41.0550 28.8060 North 225 259 2,400 1,620 Climbing FlightAware
02:31PM 41.0780 28.8180 21° North 222 255 3,300 1,860 Climbing FlightAware
02:31PM 41.0830 28.8280 56° Northeast 229 264 3,500 1,920 Climbing FlightAware
02:31PM 41.0870 28.8540 78° East 247 284 4,100 2,400 Climbing FlightAware
02:32PM 41.0910 28.8850 80° East 254 292 4,900 2,160 Climbing FlightAware
02:32PM 41.0970 28.9290 80° East 269 310 5,900 2,100 Climbing FlightAware
02:32PM 41.1000 28.9500 79° East 273 314 6,500 2,520 Climbing FlightAware
02:33PM 41.1070 29.0010 80° East 275 316 7,800 2,520 Climbing FlightAware
02:33PM 41.1120 29.0360 79° East 286 329 8,600 2,100 Climbing FlightAware
02:34PM 41.1180 29.0770 79° East 297 342 9,400 1,740 Climbing FlightAware
02:34PM 41.1090 29.1730 97° East 328 377 10,800 1,980 Climbing FlightAware
02:35PM 41.0690 29.2330 131° Southeast 328 377 12,400 2,280 Climbing FlightAware
02:36PM 41.0270 29.2960 131° Southeast 341 392 13,900 2,160 Climbing FlightAware
02:36PM 40.9780 29.3720 130° Southeast 353 406 15,500 2,100 Climbing FlightAware
02:37PM 40.9370 29.4380 129° Southeast 356 410 16,900 1,920 Climbing FlightAware
02:38PM 40.9080 29.5040 120° Southeast 358 412 18,100 1,740 Climbing FlightAware
02:39PM 40.8660 29.5960 121° Southeast 372 428 19,400 1,800 Climbing FlightAware
02:39PM 40.8320 29.6680 122° Southeast 376 433 20,500 1,680 Climbing FlightAware
02:40PM 40.7940 29.7510 121° Southeast 377 434 21,700 1,560 Climbing FlightAware
02:41PM 40.7520 29.8410 122° Southeast 380 437 22,900 1,680 Climbing FlightAware
02:41PM 40.7160 29.9180 122° Southeast 383 441 24,000 1,500 Climbing FlightAware
02:42PM 40.6700 30.0170 121° Southeast 388 447 25,100 1,080 Climbing FlightAware
02:43PM 40.6310 30.1000 122° Southeast 403 464 25,700 840 Climbing FlightAware
02:43PM 40.5860 30.1960 122° Southeast 412 474 26,300 960 Climbing FlightAware
02:44PM 40.5460 30.2810 122° Southeast 413 475 27,100 1,200 Climbing FlightAware
02:45PM 40.5040 30.3690 122° Southeast 416 479 27,900 1,320 Climbing FlightAware
02:46PM 40.4630 30.4680 119° Southeast 409 471 29,000 1,500 Climbing FlightAware
02:46PM 40.4460 30.5650 103° East 402 463 30,100 1,080 Climbing FlightAware
02:47PM 40.4300 30.6560 103° East 407 468 30,500 600 Climbing FlightAware
02:48PM 40.4110 30.7620 103° East 414 476 31,000 720 Climbing FlightAware
02:48PM 40.3840 30.8820 106° East 419 482 31,600 840 Climbing FlightAware
02:49PM 40.3630 30.9810 106° East 419 482 32,200 960 Climbing FlightAware
02:50PM 40.3420 31.0770 106° East 417 480 32,900 900 Climbing FlightAware
02:50PM 40.3210 31.1750 106° East 415 478 33,400 600 Climbing FlightAware
02:51PM 40.2980 31.2850 105° East 418 481 33,800 540 Climbing FlightAware
02:52PM 40.2770 31.3790 106° East 419 482 34,200 480 Climbing FlightAware
02:53PM 40.2550 31.4820 106° East 424 488 34,500 300 Climbing FlightAware
02:53PM 40.2310 31.5910 106° East 429 494 34,700 300 Climbing FlightAware
02:54PM 40.2060 31.7040 106° East 434 499 35,000 180 Climbing FlightAware
02:55PM 40.1840 31.8000 107° East 435 501 35,000 120 Level FlightAware
02:55PM 40.1590 31.9160 106° East 433 498 35,200 300 Climbing FlightAware
02:56PM 40.1360 32.0190 106° East 433 498 35,500 420 Climbing FlightAware
02:57PM 40.1140 32.1150 107° East 431 496 35,800 360 Climbing FlightAware
02:57PM 40.0920 32.2150 106° East 429 494 36,000 120 Climbing FlightAware
02:58PM 40.0690 32.3150 107° East 426 490 36,000  Level FlightAware
02:59PM 40.0430 32.4280 107° East 428 493 36,000  Level FlightAware
03:00PM 40.0190 32.5350 106° East 426 490 36,000  Level FlightAware
03:00PM 39.9950 32.6360 107° East 422 486 36,000  Level FlightAware
03:01PM 39.9730 32.7340 106° East 422 486 36,000  Level FlightAware
03:02PM 39.9470 32.8430 107° East 423 487 36,000  Level FlightAware
03:02PM 39.9250 32.9390 107° East 426 490 36,000  Level FlightAware
03:03PM 39.9000 33.0480 107° East 428 493 36,000 -240 Level FlightAware
03:04PM 39.8760 33.1460 108° East 429 494 35,700 -480 Descending FlightAware
03:04PM 39.8530 33.2450 107° East 429 494 35,400 -540 Descending FlightAware
03:05PM 39.8270 33.3560 107° East 434 499 35,000 -300 Descending FlightAware
03:06PM 39.8020 33.4590 108° East 435 501 35,000  Level FlightAware
03:07PM 39.7770 33.5640 107° East 430 495 35,000  Level FlightAware
03:07PM 39.7520 33.6690 107° East 423 487 35,000  Level FlightAware
03:08PM 39.7260 33.7770 107° East 419 482 35,000 -120 Level FlightAware
03:09PM 39.7030 33.8720 107° East 418 481 34,900 -120 Descending FlightAware
03:09PM 39.6820 33.9570 108° East 420 483 34,900 60 Level FlightAware
03:10PM 39.6530 34.0780 107° East 430 495 35,000 60 Climbing FlightAware
03:11PM 39.6310 34.1640 108° East 435 501 35,000  Level FlightAware
03:11PM 39.6040 34.2740 108° East 434 499 35,000  Level FlightAware
03:12PM 39.5760 34.3870 108° East 437 503 35,000  Level FlightAware
03:13PM 39.5530 34.4810 108° East 440 506 35,000  Level FlightAware
03:14PM 39.5230 34.5980 108° East 440 506 35,000  Level FlightAware
03:14PM 39.5020 34.6820 108° East 441 507 35,000  Level FlightAware
03:15PM 39.4720 34.8020 108° East 441 507 35,000  Level FlightAware
03:16PM 39.4490 34.8940 108° East 441 507 35,000  Level FlightAware
03:16PM 39.4240 34.9920 108° East 441 507 35,000  Level FlightAware
03:17PM 39.4030 35.0780 108° East 441 507 35,000  Level FlightAware
03:18PM 39.3810 35.1630 108° East 441 507 35,000  Level FlightAware
03:18PM 39.3540 35.2700 108° East 441 507 35,000  Level FlightAware
03:19PM 39.3330 35.3550 108° East 441 507 35,000  Level FlightAware
03:20PM 39.3110 35.4400 108° East 441 507 35,000  Level FlightAware
03:20PM 39.2900 35.5260 107° East 441 507 35,000  Level FlightAware
03:21PM 39.2690 35.6110 108° East 441 507 35,000  Level FlightAware
03:22PM 39.2420 35.7170 108° East 441 507 35,000  Level FlightAware
03:23PM 39.2200 35.8030 108° East 441 507 35,000  Level FlightAware
03:23PM 39.1990 35.8880 108° East 441 507 35,000  Level FlightAware
03:24PM 39.1770 35.9730 108° East 441 507 35,000  Level FlightAware
03:25PM 39.1560 36.0580 108° East 441 507 35,000  Level FlightAware
03:25PM 39.1290 36.1640 108° East 441 507 35,000  Level FlightAware
03:28PM 38.9779 36.3767 132° Southeast  Level Estimated
03:29PM 38.9041 36.4800 133° Southeast  Level Estimated
03:30PM 38.8302 36.5832 133° Southeast  Level Estimated
03:31PM 38.7562 36.6862 133° Southeast  Level Estimated
03:32PM 38.6821 36.7890 133° Southeast  Level Estimated
03:33PM 38.6079 36.8915 133° Southeast  Level Estimated
03:34PM 38.5336 36.9939 133° Southeast  Level Estimated
03:35PM 38.4592 37.0960 133° Southeast  Level Estimated
03:36PM 38.3848 37.1979 133° Southeast  Level Estimated
03:37PM 38.3102 37.2996 133° Southeast  Level Estimated
03:38PM 38.2356 37.4011 133° Southeast  Level Estimated
03:39PM 38.1609 37.5024 133° Southeast  Level Estimated
03:40PM 38.0861 37.6034 133° Southeast  Level Estimated
03:41PM 38.0112 37.7043 133° Southeast  Level Estimated
03:42PM 37.9362 37.8050 133° Southeast  Level Estimated
03:43PM 37.8612 37.9054 133° Southeast  Level Estimated
03:44PM 37.7860 38.0057 133° Southeast  Level Estimated
03:45PM 37.7108 38.1057 134° Southeast  Level Estimated
03:46PM 37.6355 38.2056 134° Southeast  Level Estimated
03:47PM 37.5601 38.3052 134° Southeast  Level Estimated
03:48PM 37.4846 38.4047 134° Southeast  Level Estimated
03:49PM 37.4090 38.5039 134° Southeast  Level Estimated
03:50PM 37.3334 38.6030 134° Southeast  Level Estimated
03:51PM 37.2576 38.7018 134° Southeast  Level Estimated
03:52PM 37.1818 38.8004 134° Southeast  Level Estimated
03:53PM 37.1059 38.8989 134° Southeast  Level Estimated
03:54PM 37.0299 38.9972 134° Southeast  Level Estimated
03:55PM 36.9539 39.0952 134° Southeast  Level Estimated
03:56PM 36.8778 39.1931 134° Southeast  Level Estimated
03:57PM 36.8015 39.2907 134° Southeast  Level Estimated
03:57PM 38.0960 41.2820 134° Southeast 442 509 35,000  Level FlightAware
03:58PM 36.7252 39.3882 134° Southeast  Level Estimated
03:58PM 38.0660 41.3790 111° Southeast 440 506 35,000  Level FlightAware
03:58PM 38.0320 41.4900 111° Southeast 440 506 34,900  Descending FlightAware
03:59PM 38.0030 41.5830 112° Southeast 441 507 35,000 60 Climbing FlightAware
04:00PM 37.9690 41.6920 112° Southeast 444 511 35,000  Level FlightAware
04:01PM 37.9390 41.7870 112° Southeast 446 513 35,000  Level FlightAware
04:01PM 37.9120 41.9040 106° East 446 513 35,000  Level FlightAware
04:02PM 37.9020 42.0060 97° East 447 514 35,000 60 Level FlightAware
04:03PM 37.8960 42.1070 94° East 446 513 35,100 60 Climbing FlightAware
04:03PM 37.8900 42.2090 94° East 446 513 35,100 -120 Level FlightAware
04:04PM 37.8810 42.3290 95° East 442 509 35,000 -120 Descending FlightAware
04:05PM 37.8710 42.4450 96° East 441 507 35,000  Level FlightAware
04:05PM 37.8510 42.5450 104° East 439 505 35,000  Level FlightAware
04:06PM 37.8190 42.6380 114° Southeast 437 503 35,000  Level FlightAware
04:07PM 37.7720 42.7350 121° Southeast 438 504 35,000  Level FlightAware
04:08PM 37.7190 42.8120 131° Southeast 438 504 35,000  Level FlightAware
04:08PM 37.6500 42.8900 138° Southeast 440 506 35,000  Level FlightAware
04:09PM 37.5890 42.9560 139° Southeast 442 509 35,000  Level FlightAware
04:10PM 37.5260 43.0260 139° Southeast 442 509 35,000  Level FlightAware
04:10PM 37.4580 43.0990 140° Southeast 444 511 35,000  Level FlightAware
04:11PM 37.3960 43.1660 139° Southeast 446 513 35,000  Level FlightAware
04:12PM 37.3260 43.2270 145° Southeast 449 517 35,000  Level FlightAware
04:12PM 37.2400 43.2790 154° Southeast 446 513 35,000  Level FlightAware
04:13PM 37.1660 43.3200 156° South 440 506 35,000  Level FlightAware
04:14PM 37.0820 43.3680 155° Southeast 442 509 35,000  Level FlightAware
04:15PM 37.0100 43.4080 156° South 443 510 35,000  Level FlightAware
04:15PM 36.9220 43.4580 156° South 446 513 35,000  Level FlightAware
04:16PM 36.8470 43.4990 156° South 447 514 35,000  Level FlightAware
04:17PM 36.7740 43.5400 156° South 444 511 35,000 60 Level FlightAware
04:17PM 36.6910 43.5850 157° South 442 509 35,100  Climbing FlightAware
04:18PM 36.6140 43.6250 157° South 440 506 35,000 -120 Descending FlightAware
04:19PM 36.5290 43.6690 157° South 438 504 35,000  Level FlightAware
04:19PM 36.4540 43.7080 157° South 438 504 35,000  Level FlightAware
04:20PM 36.3790 43.7470 157° South 437 503 35,000  Level FlightAware
04:21PM 36.2960 43.7900 157° South 435 501 35,000  Level FlightAware
04:22PM 36.2220 43.8290 157° South 434 499 35,000  Level FlightAware
04:22PM 36.1390 43.8720 157° South 432 497 35,000  Level FlightAware
04:23PM 36.0660 43.9110 157° South 430 495 35,000  Level FlightAware
04:24PM 35.9830 43.9540 157° South 429 494 35,000  Level FlightAware
04:24PM 35.9090 43.9930 157° South 429 494 35,000  Level FlightAware
04:25PM 35.8370 44.0300 157° South 431 496 35,000  Level FlightAware
04:26PM 35.7550 44.0730 157° South 431 496 35,000  Level FlightAware
04:26PM 35.6790 44.1120 157° South 431 496 35,000  Level FlightAware
04:27PM 35.6040 44.1510 157° South 432 497 35,000  Level FlightAware
04:28PM 35.5210 44.1940 157° South 435 501 35,000  Level FlightAware
04:29PM 35.4510 44.2300 157° South 435 501 35,000  Level FlightAware
04:29PM 35.3630 44.2750 157° South 434 499 35,000  Level FlightAware
04:30PM 35.2900 44.3130 157° South 433 498 35,000  Level FlightAware
04:31PM 35.2090 44.3520 159° South 431 496 35,000  Level FlightAware
04:31PM 35.1350 44.3850 160° South 431 496 35,000  Level FlightAware
04:32PM 35.0550 44.4220 159° South 432 497 35,000  Level FlightAware
04:33PM 34.9720 44.4600 159° South 431 496 35,000  Level FlightAware
04:33PM 34.8970 44.4940 160° South 430 495 35,000  Level FlightAware
04:34PM 34.8130 44.5330 159° South 430 495 35,000  Level FlightAware
04:35PM 34.7410 44.5660 159° South 429 494 35,000  Level FlightAware
04:36PM 34.6670 44.5990 160° South 429 494 35,000  Level FlightAware
04:36PM 34.5810 44.6390 159° South 427 491 35,000  Level FlightAware
04:37PM 34.5070 44.6730 159° South 427 491 35,000  Level FlightAware
04:38PM 34.4260 44.7110 159° South 427 491 35,000  Level FlightAware
04:38PM 34.3530 44.7480 157° South 427 491 35,000  Level FlightAware
04:39PM 34.2790 44.7840 158° South 427 491 35,000  Level FlightAware
04:40PM 34.1960 44.8250 158° South 427 491 35,000  Level FlightAware
04:40PM 34.1220 44.8610 158° South 428 493 35,000  Level FlightAware
04:41PM 34.0500 44.8960 158° South 427 491 35,000  Level FlightAware
04:42PM 33.9700 44.9350 158° South 426 490 35,000  Level FlightAware
04:43PM 33.8950 44.9720 158° South 424 488 35,000  Level FlightAware
04:43PM 33.8100 45.0120 159° South 422 486 35,000  Level FlightAware
04:44PM 33.7530 45.0400 158° South 421 484 35,000  Level FlightAware
04:45PM 33.6610 45.0840 158° South 420 483 35,000  Level FlightAware
04:45PM 33.5900 45.1160 159° South 421 484 35,000  Level FlightAware
04:46PM 33.5150 45.1510 159° South 422 486 35,000  Level FlightAware
04:47PM 33.4320 45.1890 159° South 424 488 35,000  Level FlightAware
04:47PM 33.3600 45.2220 159° South 424 488 35,000  Level FlightAware
04:48PM 33.2740 45.2620 159° South 427 491 35,000  Level FlightAware
04:49PM 33.2120 45.2930 157° South 428 493 35,000  Level FlightAware
04:50PM 33.1280 45.3350 157° South 429 494 35,000  Level FlightAware
04:50PM 33.0510 45.3740 157° South 429 494 35,000  Level FlightAware
04:51PM 32.9780 45.4090 158° South 428 493 35,000  Level FlightAware
04:52PM 32.8920 45.4520 157° South 425 489 35,000  Level FlightAware
04:52PM 32.8180 45.4870 158° South 424 488 35,000  Level FlightAware
04:53PM 32.7600 45.5150 158° South 424 488 35,000  Level FlightAware
04:54PM 32.6850 45.5510 158° South 424 488 35,000  Level FlightAware
04:54PM 32.6230 45.5800 158° South 424 488 35,000  Level FlightAware
04:55PM 32.5460 45.6170 158° South 424 488 35,000  Level FlightAware
04:56PM 32.4840 45.6470 158° South 424 488 35,000  Level FlightAware
04:57PM 32.4220 45.6770 158° South 424 488 35,000  Level FlightAware
04:57PM 32.3600 45.7060 158° South 424 488 35,000  Level FlightAware
04:58PM 32.2990 45.7360 157° South 424 488 35,000  Level FlightAware
04:59PM 32.2210 45.7730 158° South 424 488 35,000  Level FlightAware
04:59PM 32.1590 45.8020 158° South 424 488 35,000  Level FlightAware
05:00PM 32.0980 45.8320 157° South 424 488 35,000  Level FlightAware
05:01PM 32.0360 45.8610 158° South 424 488 35,000  Level FlightAware
05:01PM 31.9740 45.8910 158° South 424 488 35,000  Level FlightAware
05:02PM 31.8970 45.9270 158° South 424 488 35,000  Level FlightAware
05:03PM 31.8350 45.9570 158° South 424 488 35,000  Level FlightAware
05:05PM 31.6949 46.0867 142° Southeast  Level Estimated
05:06PM 31.6090 46.1659 142° Southeast  Level Estimated
05:07PM 31.5231 46.2449 142° Southeast  Level Estimated
05:08PM 31.4371 46.3238 142° Southeast  Level Estimated
05:09PM 31.3511 46.4026 142° Southeast  Level Estimated
05:10PM 31.2650 46.4812 142° Southeast  Level Estimated
05:11PM 31.1789 46.5597 142° Southeast  Level Estimated
05:12PM 31.0928 46.6380 142° Southeast  Level Estimated
05:12PM 31.0140 47.3170 142° Southeast 449 517 35,000  Level FlightAware
05:13PM 30.9290 47.4060 138° Southeast 446 513 35,000  Level FlightAware
05:14PM 30.8560 47.4820 138° Southeast 448 516 35,000  Level FlightAware
05:15PM 30.7670 47.5750 138° Southeast 449 517 35,000  Level FlightAware
05:15PM 30.7210 47.6240 138° Southeast 452 520 35,000  Level FlightAware
05:16PM 30.6400 47.7080 138° Southeast 453 521 35,000  Level FlightAware
05:17PM 30.5520 47.7990 138° Southeast 453 521 35,000  Level FlightAware
05:18PM 30.4920 47.8620 138° Southeast 453 521 35,000  Level FlightAware
05:18PM 30.4280 47.9280 138° Southeast 452 520 35,000  Level FlightAware
05:19PM 30.3550 48.0030 138° Southeast 451 519 35,000  Level FlightAware
05:20PM 30.2750 48.0860 138° Southeast 448 516 35,000  Level FlightAware
05:21PM 30.2290 48.1330 139° Southeast 446 513 35,000 -120 Level FlightAware
05:22PM 30.1370 48.2280 138° Southeast 447 514 34,900 -60 Descending FlightAware
05:22PM 30.0700 48.2960 139° Southeast 452 520 34,900 60 Level FlightAware
05:23PM 30.0040 48.3640 138° Southeast 453 521 35,000 60 Climbing FlightAware
05:24PM 29.9410 48.4280 139° Southeast 456 525 35,000 60 Level FlightAware
05:24PM 29.8700 48.4930 142° Southeast 447 514 35,100 60 Climbing FlightAware
05:25PM 29.8130 48.5320 149° Southeast 440 506 35,100 -120 Level FlightAware
05:26PM 29.7180 48.5880 153° Southeast 438 504 35,000 -120 Descending FlightAware
05:26PM 29.6380 48.6340 153° Southeast 437 503 35,000  Level FlightAware
05:27PM 29.5620 48.6790 153° Southeast 438 504 35,000  Level FlightAware
05:28PM 29.4880 48.7220 153° Southeast 436 502 35,000  Level FlightAware
05:28PM 29.4270 48.7580 153° Southeast 433 498 35,000  Level FlightAware
05:29PM 29.3400 48.8090 153° Southeast 431 496 35,000  Level FlightAware
05:30PM 29.2650 48.8520 153° Southeast 431 496 35,000  Level FlightAware
05:31PM 29.1960 48.8930 153° Southeast 431 496 35,000  Level FlightAware
05:32PM 29.0780 48.9620 153° Southeast 429 494 35,000  Level FlightAware
05:33PM 28.9950 49.0100 153° Southeast 429 494 35,000  Level FlightAware
05:33PM 28.9420 49.0410 153° Southeast 431 496 35,000  Level FlightAware
05:34PM 28.8380 49.1000 154° Southeast 432 497 35,000  Level FlightAware
05:35PM 28.7400 49.1570 153° Southeast 431 496 35,000  Level FlightAware
05:36PM 28.6570 49.2050 153° Southeast 432 497 35,000  Level FlightAware
05:36PM 28.5920 49.2430 153° Southeast 430 495 35,000  Level FlightAware
05:37PM 28.5130 49.2870 154° Southeast 429 494 35,000  Level FlightAware
05:38PM 28.4400 49.3290 153° Southeast 428 493 35,000  Level FlightAware
05:38PM 28.3720 49.3690 153° Southeast 428 493 35,000  Level FlightAware
05:39PM 28.3120 49.4030 153° Southeast 428 493 35,000  Level FlightAware
05:40PM 28.2330 49.4480 153° Southeast 428 493 35,000  Level FlightAware
05:40PM 28.1620 49.4880 154° Southeast 433 498 35,000  Level FlightAware
05:41PM 28.0690 49.5470 151° Southeast 445 512 35,000  Level FlightAware
05:42PM 27.9750 49.6200 146° Southeast 448 516 35,000  Level FlightAware
05:43PM 27.8990 49.6780 146° Southeast 447 514 35,000  Level FlightAware
05:44PM 27.8020 49.7510 146° Southeast 446 513 35,000  Level FlightAware
05:44PM 27.7410 49.7980 146° Southeast 446 513 35,000  Level FlightAware
05:45PM 27.6830 49.8430 146° Southeast 446 513 35,000  Level FlightAware
05:46PM 27.6250 49.8870 146° Southeast 446 513 35,000  Level FlightAware
05:46PM 27.5660 49.9310 147° Southeast 446 513 35,000  Level FlightAware
05:47PM 27.4940 49.9860 146° Southeast 446 513 35,000  Level FlightAware
05:48PM 27.4350 50.0310 146° Southeast 446 513 35,000  Level FlightAware
05:49PM 27.3770 50.0750 146° Southeast 446 513 35,000  Level FlightAware
05:49PM 27.3190 50.1190 146° Southeast 446 513 35,000  Level FlightAware
05:50PM 27.2460 50.1740 146° Southeast 446 513 35,000  Level FlightAware
05:51PM 27.1880 50.2180 146° Southeast 446 513 35,000  Level FlightAware
05:51PM 27.1300 50.2620 146° Southeast 446 513 35,000  Level FlightAware
05:52PM 27.0720 50.3060 146° Southeast 446 513 35,000  Level FlightAware
05:53PM 27.0140 50.3510 145° Southeast 446 513 35,000  Level FlightAware
05:54PM 26.9410 50.4060 146° Southeast 446 513 35,000 -1,620 Level FlightAware
05:54PM 26.7360 50.6070 139° Southeast 481 554 33,000 -1,860 Descending FlightAware
05:55PM 26.6800 50.6820 130° Southeast 481 554 33,000  Level FlightAware
05:55PM 26.6130 50.7700 130° Southeast 480 552 33,000 -660 Level FlightAware
05:57PM 26.4600 50.9730 130° Southeast 482 555 31,300 -1,140 Descending FlightAware
05:58PM 26.3750 51.0870 130° Southeast 462 532 29,900 -1,560 Descending FlightAware
05:59PM 26.3200 51.1590 130° Southeast 455 524 28,700 -1,680 Descending FlightAware
06:00PM 26.2640 51.2280 132° Southeast 433 498 27,700 -1,440 Descending FlightAware
06:00PM 26.1970 51.2960 138° Southeast 400 460 26,700 -1,920 Descending FlightAware
06:01PM 26.1330 51.3600 138° Southeast 407 468 24,900 -2,520 Descending FlightAware
06:02PM 26.0770 51.4150 139° Southeast 408 470 23,200 -2,400 Descending FlightAware
06:03PM 25.9910 51.4980 139° Southeast 397 457 20,900 -2,160 Descending FlightAware
06:03PM 25.9500 51.5400 137° Southeast 393 452 20,000 -2,040 Descending FlightAware
06:05PM 25.8300 51.6560 139° Southeast 380 437 16,700 -2,100 Descending FlightAware
06:06PM 25.7460 51.7120 149° Southeast 359 413 14,800 -2,160 Descending FlightAware
06:06PM 25.6810 51.7200 174° South 355 409 13,300 -1,860 Descending FlightAware
06:07PM 25.6090 51.7270 175° South 341 392 12,200 -1,140 Descending FlightAware
06:08PM 25.5470 51.7330 175° South 311 358 11,700 -960 Descending FlightAware
06:09PM 25.4840 51.7400 174° South 290 334 10,900 -1,380 Descending FlightAware
06:09PM 25.4330 51.7470 173° South 277 319 9,800 -2,100 Descending FlightAware
06:10PM 25.3930 51.7530 172° South 264 304 8,500 -2,640 Descending FlightAware
06:10PM 25.3630 51.7570 173° South 277 319 7,400 -2,400 Descending FlightAware
06:10PM 25.3520 51.7580 175° South 273 314 7,100 -1,020 Descending FlightAware
06:11PM 25.2910 51.7630 176° South 256 295 6,500 -840 Descending FlightAware
06:12PM 25.2570 51.7660 175° South 241 277 6,100 -1,140 Descending FlightAware
06:12PM 25.2280 51.7680 176° South 241 277 5,500 -1,320 Descending FlightAware
06:12PM 25.2020 51.7700 176° South 240 276 5,000 -1,140 Descending FlightAware
06:13PM 25.1700 51.7720 177° South 229 264 4,500 -780 Descending FlightAware
06:14PM 25.1190 51.7760 176° South 228 262 4,000 -1,200 Descending FlightAware
06:15PM 25.0900 51.6980 248° West 228 262 2,200 -1,440 Descending FlightAware
06:15PM 25.0880 51.6830 262° West 229 264 2,100 -180 Descending FlightAware
06:16PM 25.0900 51.6490 274° West 229 264 2,100  Level FlightAware
06:16PM 25.1200 51.6290 329° Northwest 198 228 2,100  Level FlightAware
06:16PM 25.1320 51.6230 336° Northwest 191 220 2,100 -540 Level FlightAware
06:17PM 25.1730 51.6040 337° Northwest 172 198 1,500 -720 Descending FlightAware
06:18PM 25.1920 51.5950 337° Northwest 163 188 1,200 -360 Descending FlightAware
06:18PM 25.2070 51.5880 337° Northwest 163 188 1,200 -840 Level FlightAware
06:19PM 25.2460 51.5720 340° North 154 177 100 -840 Descending FlightAware
06:19PM 25.2600 51.5650 336° Northwest 154 177 100  Level FlightAware
06:22PM 25.2611 51.5651 North  Level Estimated
06:23PM 25.2611 51.5651 324° Northwest  Level Estimated
06:24PM 25.2611 51.5651 324° Northwest  Level Estimated
06:25PM 25.2611 51.5651 324° Northwest  Level Estimated
06:26PM 25.2611 51.5651 324° Northwest  Level Estimated
06:27PM 25.2611 51.5651 324° Northwest  Level Estimated
06:28PM 25.2611 51.5651 324° Northwest  Level Estimated
06:29PM 25.2611 51.5651 324° Northwest  Level Estimated
06:30PM 25.2611 51.5651 324° Northwest  Level Estimated